Main page
METAR-TAF:

METAR-TAF

Airports :

Glasgow Municipal Airport

Glasgow, Kentucky, United States

latitude: 37-01-54N, longitude: 085-57-13W, elevation: 715 ft

Current weather observation

The report was made 18 minutes ago, at 21:55 UTC
Wind 3 mph from the West
Temperature 79°F
Humidity 84%
Pressure 29.94 in. Hg
Visibility: 10 miles
Clear sky

METAR: KGLW 172155Z AUTO 27003KT 10SM CLR 26/23 A2994 RMK AO2 LTG DSNT E T02600233

Time: 17:13 (22:13 UTC)


TAF: missing

Weather observations and forecasts of more than 4000 airports (METAR and TAF reports).

The available stations are represented by yellow and red dots on the map.

Hover mouse over dot to see the name of the station.

Then click to see weather observations and forecasts.

To change the map : click on the green buttons with a black cross to zoom in, on the green button with a dash to zoom out, or on the green arrows for adjacent maps.


METAR-TAF: